Airfield :
LOGIN :

Register | Disclaimer

   EN    FR    IT 

 










Legend :    VFR   Marginal VFR   IFR   Intensive IFR   Very Intensive IFR
Visi :
Ceiling :
>= 8 km
>= 3000ft
5 to 8 km
1000 to 3000 ft
1500m to 5 km
500 to 1000 ft
800 to 1500m
200 to 500 ft
< 800m
< 200 ft
Symbols :   Thunderstorms  Fog  Heavy snow  Heavy precipitations  Wind > 20 kt
SIGMETs :     Misc.  Thunderstorms  Icing  Turbulence  Mountain Waves  Volcanic Ashes







- Airport Elevation : 12 ft
- IATA code : NCE
- Download approach charts


LFMN - Nice

CURRENT METAR :
  • 291300Z 16005KT 9999 FEW043TCU 25/18 Q1017 NOSIG

EXPIRED METARs :
  • 291230Z 13004KT 9999 FEW043TCU 25/17 Q1017 NOSIG
  • 291200Z 13003KT 9999 FEW040 24/17 Q1017 NOSIG
  • 291130Z 13004KT 9999 FEW040 24/18 Q1017 NOSIG
  • 291100Z 14004KT 110V170 9999 FEW040 24/18 Q1017 NOSIG
  • 291030Z 13003KT 100V160 9999 FEW040 24/18 Q1017 NOSIG

TAF TAF LFMN
Valid from the 29 at 09:00 until the 30 at 15:00 UTC


290800Z 2909/3015 17008KT CAVOK
BECMG 2920/2922 34010KT
PROB30
TEMPO 3008/3012 SCT010
BECMG 3007/3009 10010KT
ATIS : +33 4 93 17 21 16
No reported NOTAMs for that airfield.



MET'MAP, your aeronautical weather chart ! - Copyright ORBIFLY December 2007 - Disclaimer

ORBIFLY MET'MAP TEAM :

Programming & Development : Alexandra Zaïnal
Concept & Development : Baudouin d'Aumeries
Co-Development & Prog : Marc-Olivier Méhu
Technical & hardware support : Manuel Goepfert

Contact : metmap@orbifly.com




SOURCES & CREDITS :

   NOAA